Time;durP1;ratioP1;P1;durP2;ratioP2;P2;SDS_P1;SDS_P2;PMS_P1;PMS_P2;Temp;Humidity;BMP_temperature;BMP_pressure;BME280_temperature;BME280_humidity;BME280_pressure;Samples;Min_cycle;Max_cycle;Signal;HPM_P1;HPM_P2
2023/11/06 00:02:06;;;;;;;9.47;3.00;;;10.00;99.90;;;;;;5137210;28;20550;-64
2023/11/06 00:04:35;;;;;;;9.83;3.70;;;9.90;99.90;;;;;;5137294;27;20450;-65
2023/11/06 00:07:02;;;;;;;7.50;3.47;;;9.90;99.90;;;;;;5137260;27;20466;-64
2023/11/06 00:09:29;;;;;;;6.90;3.17;;;9.90;99.90;;;;;;5137030;28;20463;-64
2023/11/06 00:11:56;;;;;;;7.23;3.33;;;10.00;99.90;;;;;;5136920;28;20455;-63
2023/11/06 00:14:24;;;;;;;5.60;2.60;;;10.00;99.90;;;;;;5137415;28;20599;-64
2023/11/06 00:16:52;;;;;;;8.87;3.17;;;10.00;99.90;;;;;;5138074;28;20457;-65
2023/11/06 00:19:20;;;;;;;6.90;2.40;;;10.00;99.90;;;;;;5137947;28;20519;-64
2023/11/06 00:21:48;;;;;;;6.13;3.20;;;10.00;99.90;;;;;;5139609;27;20545;-65
2023/11/06 00:24:16;;;;;;;7.80;2.77;;;10.00;99.90;;;;;;5141485;27;20454;-65
2023/11/06 00:26:45;;;;;;;10.13;3.10;;;10.00;99.90;;;;;;5141966;27;20460;-67
2023/11/06 00:29:12;;;;;;;5.90;2.53;;;10.00;99.90;;;;;;5140968;27;20464;-63
2023/11/06 00:31:40;;;;;;;9.40;2.67;;;10.00;99.90;;;;;;5141111;27;20516;-64
2023/11/06 00:34:07;;;;;;;6.73;2.70;;;10.10;99.90;;;;;;5142033;27;20489;-65
2023/11/06 00:36:35;;;;;;;6.77;2.50;;;10.10;99.90;;;;;;5141826;27;20421;-65
2023/11/06 00:39:04;;;;;;;7.27;2.40;;;10.10;88.70;;;;;;5141652;27;20474;-65
2023/11/06 00:41:31;;;;;;;6.87;2.80;;;10.10;70.40;;;;;;5142024;27;20532;-65
2023/11/06 00:43:58;;;;;;;6.70;2.80;;;10.10;27.80;;;;;;5141839;27;20450;-65
2023/11/06 00:46:25;;;;;;;5.40;2.67;;;10.10;20.70;;;;;;5141670;27;20494;-65
2023/11/06 00:48:53;;;;;;;8.60;3.00;;;10.10;33.20;;;;;;5141756;27;20454;-64
2023/11/06 00:51:20;;;;;;;8.80;2.70;;;10.10;1.10;;;;;;5141626;27;20455;-63
2023/11/06 00:53:47;;;;;;;7.80;2.43;;;10.20;14.30;;;;;;5141348;27;20529;-64
2023/11/06 00:56:16;;;;;;;5.53;2.30;;;10.10;17.10;;;;;;5141492;27;20429;-64
2023/11/06 00:58:43;;;;;;;9.17;2.70;;;10.10;34.10;;;;;;5141456;27;20469;-64
2023/11/06 01:01:12;;;;;;;9.87;3.90;;;10.10;66.20;;;;;;5141752;27;20476;-64
2023/11/06 01:03:39;;;;;;;6.70;2.47;;;10.20;72.40;;;;;;5141313;27;20454;-64
2023/11/06 01:06:09;;;;;;;4.70;2.50;;;10.10;25.80;;;;;;5141746;27;20469;-64
2023/11/06 01:08:37;;;;;;;6.03;2.20;;;10.10;6.30;;;;;;5141389;27;20759;-64
2023/11/06 01:11:05;;;;;;;9.53;2.40;;;10.10;1.00;;;;;;5141072;27;20455;-62
2023/11/06 01:13:34;;;;;;;11.87;3.17;;;10.10;42.50;;;;;;5140935;27;20820;-63
2023/11/06 01:16:01;;;;;;;8.37;2.67;;;10.20;1.00;;;;;;5141098;27;20848;-64
2023/11/06 01:18:29;;;;;;;5.67;2.10;;;10.20;1.00;;;;;;5139383;27;20433;-64
2023/11/06 01:20:56;;;;;;;6.23;2.40;;;10.10;1.00;;;;;;5138737;27;20503;-64
2023/11/06 01:23:23;;;;;;;7.33;2.57;;;10.10;1.00;;;;;;5138736;27;20462;-65
2023/11/06 01:25:50;;;;;;;5.03;2.13;;;10.10;1.00;;;;;;5139104;27;20446;-63
2023/11/06 01:28:18;;;;;;;5.77;2.47;;;10.10;1.00;;;;;;5140686;27;20455;-64
2023/11/06 01:30:46;;;;;;;9.40;2.53;;;10.10;1.00;;;;;;5140612;27;20430;-64
2023/11/06 01:33:15;;;;;;;8.00;2.93;;;10.10;1.00;;;;;;5139788;27;20572;-63
2023/11/06 01:35:42;;;;;;;5.60;2.63;;;10.10;1.00;;;;;;5140082;27;20469;-64
2023/11/06 01:38:12;;;;;;;4.53;2.20;;;10.10;1.00;;;;;;5140158;27;20489;-69
2023/11/06 01:40:39;;;;;;;10.30;2.60;;;10.10;1.00;;;;;;5141016;27;20430;-65
2023/11/06 01:43:07;;;;;;;7.93;2.60;;;10.00;1.00;;;;;;5141201;27;20439;-65
2023/11/06 01:45:34;;;;;;;7.70;2.80;;;10.10;1.00;;;;;;5140702;27;20457;-64
2023/11/06 01:48:04;;;;;;;9.20;2.67;;;10.00;1.00;;;;;;5140491;27;20455;-64
2023/11/06 01:50:34;;;;;;;6.30;2.37;;;10.00;1.00;;;;;;5140672;27;20506;-63
2023/11/06 01:53:05;;;;;;;4.50;2.27;;;10.10;1.00;;;;;;5140685;27;20459;-64
2023/11/06 01:55:33;;;;;;;7.57;2.37;;;10.00;1.00;;;;;;5140794;27;20512;-65
2023/11/06 01:58:01;;;;;;;4.20;2.63;;;10.00;1.00;;;;;;5140852;27;20461;-64
2023/11/06 02:00:28;;;;;;;8.87;3.10;;;10.00;1.00;;;;;;5140359;27;20756;-64
2023/11/06 02:02:55;;;;;;;8.37;2.80;;;10.00;1.00;;;;;;5139802;27;20546;-65
2023/11/06 02:05:24;;;;;;;4.43;2.23;;;10.00;1.00;;;;;;5139942;27;20461;-64
2023/11/06 02:07:51;;;;;;;7.00;2.60;;;10.00;1.00;;;;;;5140051;27;20531;-65
2023/11/06 02:10:18;;;;;;;4.93;2.50;;;10.00;1.00;;;;;;5140738;27;20460;-61
2023/11/06 02:12:46;;;;;;;6.10;2.57;;;10.00;1.00;;;;;;5140366;27;20433;-64
2023/11/06 02:15:14;;;;;;;4.50;2.30;;;10.00;1.00;;;;;;5139650;27;20487;-65
2023/11/06 02:17:43;;;;;;;5.27;2.60;;;10.10;1.00;;;;;;5140297;27;20830;-65
2023/11/06 02:20:11;;;;;;;4.47;2.30;;;10.10;1.00;;;;;;5140219;27;20537;-65
2023/11/06 02:22:42;;;;;;;7.30;2.63;;;10.00;1.00;;;;;;5140344;27;20482;-65
2023/11/06 02:25:11;;;;;;;7.67;2.93;;;10.00;1.00;;;;;;5140313;27;20447;-64
2023/11/06 02:27:40;;;;;;;5.00;2.27;;;10.00;1.00;;;;;;5139976;27;20553;-66
2023/11/06 02:30:09;;;;;;;4.67;2.17;;;10.00;94.20;;;;;;5139172;27;20432;-66
2023/11/06 02:32:36;;;;;;;4.47;2.60;;;9.90;99.90;;;;;;5139674;27;20454;-64
2023/11/06 02:35:07;;;;;;;7.90;2.27;;;9.90;99.90;;;;;;5140057;27;20939;-65
2023/11/06 02:37:34;;;;;;;7.00;2.57;;;9.80;99.90;;;;;;5139385;27;20482;-66
2023/11/06 02:40:01;;;;;;;7.57;3.03;;;9.80;99.90;;;;;;5139692;27;20549;-64
2023/11/06 02:42:30;;;;;;;5.53;3.10;;;9.80;99.90;;;;;;5139553;27;20461;-63
2023/11/06 02:44:57;;;;;;;4.93;2.60;;;9.80;99.90;;;;;;5138655;27;20455;-61
2023/11/06 02:47:24;;;;;;;8.50;2.60;;;9.80;99.90;;;;;;5139437;27;20549;-63
2023/11/06 02:49:51;;;;;;;4.03;1.83;;;9.80;99.90;;;;;;5138932;27;20454;-67
2023/11/06 02:52:18;;;;;;;5.37;2.50;;;9.80;99.90;;;;;;5139400;27;20455;-66
2023/11/06 02:54:45;;;;;;;6.33;3.67;;;9.80;99.90;;;;;;5139478;27;20729;-63
2023/11/06 02:57:12;;;;;;;4.90;2.60;;;9.70;99.90;;;;;;5139062;27;20461;-63
2023/11/06 02:59:42;;;;;;;6.80;2.70;;;9.80;99.90;;;;;;5139272;27;20548;-62
2023/11/06 03:02:09;;;;;;;11.00;2.80;;;9.70;99.90;;;;;;5139204;27;20458;-68
2023/11/06 03:04:36;;;;;;;5.13;2.20;;;9.70;99.90;;;;;;5139055;27;20455;-64
2023/11/06 03:07:03;;;;;;;4.80;2.30;;;9.70;99.90;;;;;;5139042;27;20458;-64
2023/11/06 03:09:30;;;;;;;4.63;2.83;;;9.80;99.90;;;;;;5138634;27;20557;-64
2023/11/06 03:11:57;;;;;;;8.47;2.63;;;9.80;99.90;;;;;;5139073;27;20450;-64
2023/11/06 03:14:25;;;;;;;4.97;2.60;;;9.80;99.90;;;;;;5138853;27;20778;-65
2023/11/06 03:16:53;;;;;;;3.47;2.43;;;9.70;99.90;;;;;;5138998;27;20519;-66
2023/11/06 03:19:20;;;;;;;5.67;1.80;;;9.70;99.90;;;;;;5138585;27;20545;-63
2023/11/06 03:21:48;;;;;;;3.23;2.40;;;9.70;99.90;;;;;;5138598;27;20464;-64
2023/11/06 03:24:15;;;;;;;17.63;3.00;;;9.70;99.90;;;;;;5138698;27;20436;-64
2023/11/06 03:26:43;;;;;;;18.13;3.30;;;9.70;99.90;;;;;;5138868;27;20884;-64
2023/11/06 03:29:10;;;;;;;4.80;2.57;;;9.80;99.90;;;;;;5138902;27;20447;-63
2023/11/06 03:31:37;;;;;;;4.70;2.47;;;9.70;99.90;;;;;;5138603;27;20454;-65
2023/11/06 03:34:06;;;;;;;5.60;2.83;;;9.70;99.90;;;;;;5138392;27;20478;-65
2023/11/06 03:36:33;;;;;;;4.80;2.73;;;9.70;99.90;;;;;;5138176;27;20459;-66
2023/11/06 03:39:02;;;;;;;4.27;2.63;;;9.70;99.90;;;;;;5138193;27;20941;-65
2023/11/06 03:41:30;;;;;;;4.60;2.17;;;9.70;99.90;;;;;;5138729;27;20886;-65
2023/11/06 03:43:56;;;;;;;6.83;2.53;;;9.70;99.90;;;;;;5138515;27;20495;-63
2023/11/06 03:46:23;;;;;;;8.60;2.40;;;9.70;99.90;;;;;;5138702;27;20722;-67
2023/11/06 03:48:50;;;;;;;5.10;3.13;;;9.70;99.90;;;;;;5138726;27;20465;-66
2023/11/06 03:51:19;;;;;;;5.47;2.77;;;9.70;99.90;;;;;;5138470;27;20477;-69
2023/11/06 03:53:46;;;;;;;7.83;2.60;;;9.70;99.90;;;;;;5138576;27;20461;-67
2023/11/06 03:56:13;;;;;;;7.10;2.73;;;9.70;99.90;;;;;;5138604;27;20760;-64
2023/11/06 03:58:40;;;;;;;6.10;2.20;;;9.70;99.90;;;;;;5138443;27;20455;-65
2023/11/06 04:01:08;;;;;;;4.33;2.20;;;9.70;99.90;;;;;;5138382;27;20457;-65
2023/11/06 04:03:35;;;;;;;5.83;2.60;;;9.70;99.90;;;;;;5137771;27;20771;-64
2023/11/06 04:06:05;;;;;;;7.43;3.10;;;9.70;99.90;;;;;;5136356;27;20447;-66
2023/11/06 04:08:34;;;;;;;5.37;3.00;;;9.70;99.90;;;;;;5136849;28;20493;-64
2023/11/06 04:11:01;;;;;;;10.67;2.70;;;9.70;99.90;;;;;;5136925;28;20558;-64
2023/11/06 04:13:28;;;;;;;5.47;2.93;;;9.70;99.90;;;;;;5136383;28;20454;-64
2023/11/06 04:15:55;;;;;;;5.30;2.73;;;9.70;99.90;;;;;;5136193;28;20528;-64
2023/11/06 04:18:22;;;;;;;9.20;2.80;;;9.70;99.90;;;;;;5136762;28;20570;-66
2023/11/06 04:20:49;;;;;;;9.07;2.40;;;9.70;99.90;;;;;;5138172;28;20946;-64
2023/11/06 04:23:16;;;;;;;7.83;2.40;;;9.70;99.90;;;;;;5137859;28;20476;-66
2023/11/06 04:25:48;;;;;;;6.03;3.00;;;9.70;99.90;;;;;;5138358;28;20450;-69
2023/11/06 04:28:15;;;;;;;7.07;2.70;;;9.70;99.90;;;;;;5138031;28;20484;-63
2023/11/06 04:30:43;;;;;;;6.23;2.47;;;9.70;99.90;;;;;;5137521;28;20499;-64
2023/11/06 04:33:11;;;;;;;4.77;2.20;;;9.60;99.90;;;;;;5137994;28;20838;-65
2023/11/06 04:35:38;;;;;;;5.33;2.53;;;9.70;99.90;;;;;;5137846;28;20493;-64
2023/11/06 04:38:05;;;;;;;6.00;3.03;;;9.70;99.90;;;;;;5137731;28;20478;-64
2023/11/06 04:40:33;;;;;;;5.07;2.33;;;9.70;99.90;;;;;;5138059;28;20458;-64
2023/11/06 04:43:01;;;;;;;4.50;2.07;;;9.60;99.90;;;;;;5138028;28;20549;-68
2023/11/06 04:45:28;;;;;;;5.60;2.43;;;9.60;99.90;;;;;;5137752;28;20461;-63
2023/11/06 04:47:55;;;;;;;5.00;2.40;;;9.60;99.90;;;;;;5137747;28;20458;-63
2023/11/06 04:50:23;;;;;;;7.40;2.43;;;9.60;99.90;;;;;;5137951;28;20450;-64
2023/11/06 04:52:50;;;;;;;5.00;2.70;;;9.50;99.90;;;;;;5138117;28;20451;-63
2023/11/06 04:55:17;;;;;;;4.50;2.40;;;9.50;99.90;;;;;;5137637;28;20901;-64
2023/11/06 04:57:44;;;;;;;5.70;2.30;;;9.60;99.90;;;;;;5137477;28;20553;-66
2023/11/06 05:00:14;;;;;;;6.83;2.50;;;9.50;99.90;;;;;;5138308;28;20862;-64
2023/11/06 05:02:41;;;;;;;4.10;2.43;;;9.60;99.90;;;;;;5138173;28;20436;-60
2023/11/06 05:05:09;;;;;;;9.50;3.20;;;9.60;44.70;;;;;;5137842;28;20421;-58
2023/11/06 05:07:36;;;;;;;6.13;2.67;;;9.60;50.40;;;;;;5137691;27;20887;-59
2023/11/06 05:10:05;;;;;;;8.20;2.17;;;9.70;32.20;;;;;;5141419;27;20458;-59
2023/11/06 05:12:32;;;;;;;7.53;2.97;;;9.60;14.40;;;;;;5141622;27;20482;-59
2023/11/06 05:15:00;;;;;;;5.70;3.00;;;9.60;29.60;;;;;;5141760;27;20482;-59
2023/11/06 05:17:29;;;;;;;7.90;2.70;;;9.60;85.60;;;;;;5140433;27;20549;-59
2023/11/06 05:19:56;;;;;;;5.73;3.27;;;9.60;99.90;;;;;;5140969;27;20439;-59
2023/11/06 05:22:23;;;;;;;7.63;2.97;;;9.60;99.90;;;;;;5141307;27;20462;-59
2023/11/06 05:24:50;;;;;;;4.80;2.73;;;9.60;99.90;;;;;;5140878;27;20958;-59
2023/11/06 05:27:18;;;;;;;10.60;4.20;;;9.60;99.90;;;;;;5140873;27;20436;-59
2023/11/06 05:29:45;;;;;;;6.17;2.87;;;9.50;99.90;;;;;;5141104;27;20957;-59
2023/11/06 05:32:13;;;;;;;6.80;3.37;;;9.50;99.90;;;;;;5141330;27;20482;-59
2023/11/06 05:34:41;;;;;;;6.57;3.40;;;9.50;99.90;;;;;;5141340;27;20459;-59
2023/11/06 05:37:09;;;;;;;9.10;3.03;;;9.50;99.90;;;;;;5140982;27;20461;-58
2023/11/06 05:39:39;;;;;;;5.90;2.93;;;9.50;99.90;;;;;;5140531;27;20455;-59
2023/11/06 05:42:07;;;;;;;9.60;3.70;;;9.50;99.90;;;;;;5141058;27;20470;-59
2023/11/06 05:44:34;;;;;;;5.93;2.93;;;9.60;99.90;;;;;;5141099;27;20528;-59
2023/11/06 05:47:01;;;;;;;10.13;3.90;;;9.50;99.90;;;;;;5141236;27;20485;-58
2023/11/06 05:49:28;;;;;;;8.60;3.00;;;9.50;99.90;;;;;;5140775;27;20710;-59
2023/11/06 05:51:57;;;;;;;9.63;3.40;;;9.50;99.90;;;;;;5138706;27;20465;-60
2023/11/06 05:54:24;;;;;;;11.23;4.00;;;9.50;99.90;;;;;;5139046;27;20436;-59
2023/11/06 05:56:52;;;;;;;15.43;3.60;;;9.50;99.90;;;;;;5138834;27;20491;-60
2023/11/06 05:59:19;;;;;;;12.57;3.83;;;9.50;99.90;;;;;;5138813;27;20532;-59
2023/11/06 06:01:46;;;;;;;7.03;3.00;;;9.60;99.90;;;;;;5138631;27;20550;-59
2023/11/06 06:04:14;;;;;;;6.97;3.60;;;9.60;99.90;;;;;;5139006;27;20758;-59
2023/11/06 06:06:41;;;;;;;9.20;3.53;;;9.60;99.90;;;;;;5139494;27;20732;-60
2023/11/06 06:09:09;;;;;;;14.73;3.73;;;9.60;99.90;;;;;;5140606;27;20544;-59
2023/11/06 06:11:38;;;;;;;8.30;2.77;;;9.60;99.90;;;;;;5140278;27;20877;-59
2023/11/06 06:14:05;;;;;;;14.50;4.00;;;9.70;99.90;;;;;;5140266;27;20455;-59
2023/11/06 06:16:33;;;;;;;15.63;4.30;;;9.70;99.90;;;;;;5140440;27;20927;-59
2023/11/06 06:19:05;;;;;;;19.13;4.20;;;9.70;99.90;;;;;;5140106;27;20494;-58
2023/11/06 06:21:32;;;;;;;11.93;3.60;;;9.70;99.90;;;;;;5139864;27;20465;-59
2023/11/06 06:23:59;;;;;;;7.53;3.07;;;9.70;99.90;;;;;;5138741;27;20542;-59
2023/11/06 06:26:29;;;;;;;11.37;4.37;;;9.70;99.90;;;;;;5138824;27;20545;-58
2023/11/06 06:28:56;;;;;;;7.90;4.07;;;9.70;99.90;;;;;;5139059;27;20455;-60
2023/11/06 06:31:24;;;;;;;15.30;4.60;;;9.70;99.90;;;;;;5138002;27;20541;-59
2023/11/06 06:33:51;;;;;;;10.13;3.93;;;9.80;99.90;;;;;;5139494;27;20459;-59
2023/11/06 06:36:19;;;;;;;9.60;3.80;;;9.80;99.90;;;;;;5138939;27;20483;-58
2023/11/06 06:38:46;;;;;;;17.03;4.20;;;9.80;99.90;;;;;;5139450;27;20540;-59
2023/11/06 06:41:13;;;;;;;12.10;4.43;;;9.80;99.90;;;;;;5139569;27;20553;-59
2023/11/06 06:43:42;;;;;;;14.10;4.20;;;9.90;99.90;;;;;;5139640;27;20435;-59
2023/11/06 06:46:09;;;;;;;10.57;4.00;;;9.80;72.10;;;;;;5139334;27;20492;-59
2023/11/06 06:48:36;;;;;;;10.40;3.50;;;9.80;92.70;;;;;;5139470;27;20458;-58
2023/11/06 06:51:06;;;;;;;9.87;3.73;;;9.80;57.70;;;;;;5139827;27;20458;-60
2023/11/06 06:53:34;;;;;;;11.57;3.17;;;9.80;95.40;;;;;;5139594;27;20795;-59
2023/11/06 06:56:01;;;;;;;11.23;4.00;;;9.80;57.50;;;;;;5138621;27;20487;-58
2023/11/06 06:58:28;;;;;;;10.57;3.93;;;9.80;45.70;;;;;;5139490;27;20461;-59
2023/11/06 07:00:58;;;;;;;14.23;4.63;;;9.80;22.20;;;;;;5139504;27;20509;-59
2023/11/06 07:03:26;;;;;;;10.10;3.70;;;9.80;1.00;;;;;;5139205;27;20802;-58
2023/11/06 07:05:53;;;;;;;8.97;3.70;;;9.80;1.00;;;;;;5139340;27;20725;-59
2023/11/06 07:08:20;;;;;;;12.63;4.27;;;9.80;1.00;;;;;;5139053;27;20546;-58
2023/11/06 07:10:47;;;;;;;19.77;4.50;;;9.80;1.00;;;;;;5139379;27;20549;-59
2023/11/06 07:13:15;;;;;;;11.73;3.70;;;9.80;1.00;;;;;;5138992;27;20451;-60
2023/11/06 07:15:42;;;;;;;10.77;4.50;;;9.70;1.00;;;;;;5139177;27;20492;-60
2023/11/06 07:18:10;;;;;;;14.47;4.50;;;9.80;1.00;;;;;;5138785;27;20541;-59
2023/11/06 07:20:38;;;;;;;13.30;3.63;;;9.80;1.00;;;;;;5138436;27;20516;-59
2023/11/06 07:23:06;;;;;;;11.93;3.60;;;9.80;1.00;;;;;;5138899;27;21667;-58
2023/11/06 07:25:33;;;;;;;14.27;4.17;;;9.90;1.00;;;;;;5138867;27;20808;-60
2023/11/06 07:28:00;;;;;;;11.07;3.97;;;9.80;1.00;;;;;;5138735;27;20879;-60
2023/11/06 07:30:27;;;;;;;15.27;4.50;;;9.90;1.00;;;;;;5138614;27;20753;-59
2023/11/06 07:32:54;;;;;;;6.10;3.37;;;9.90;1.00;;;;;;5138461;27;20455;-61
2023/11/06 07:35:23;;;;;;;17.53;4.07;;;9.90;1.00;;;;;;5138477;27;20450;-62
2023/11/06 07:37:50;;;;;;;16.57;4.20;;;9.90;1.00;;;;;;5138017;27;20544;-60
2023/11/06 07:40:18;;;;;;;13.63;3.90;;;9.90;1.00;;;;;;5138828;27;20501;-60
2023/11/06 07:42:45;;;;;;;13.97;3.80;;;9.90;1.00;;;;;;5138472;27;20475;-61
2023/11/06 07:45:12;;;;;;;7.77;2.90;;;10.00;1.00;;;;;;5138260;27;20812;-59
2023/11/06 07:47:39;;;;;;;11.63;3.47;;;10.00;1.00;;;;;;5138270;27;20457;-60
2023/11/06 07:50:08;;;;;;;11.33;3.53;;;10.00;1.00;;;;;;5138560;27;20955;-60
2023/11/06 07:52:37;;;;;;;13.53;4.00;;;10.00;99.90;;;;;;5138605;27;20469;-60
2023/11/06 07:55:05;;;;;;;10.33;3.70;;;10.00;99.90;;;;;;5136768;27;20465;-60
2023/11/06 07:57:32;;;;;;;10.20;3.00;;;10.00;99.90;;;;;;5132608;27;20548;-62
2023/11/06 07:59:59;;;;;;;7.87;3.03;;;10.00;99.90;;;;;;5135919;27;20497;-59
2023/11/06 08:02:27;;;;;;;5.20;2.57;;;10.00;99.90;;;;;;5136674;27;20425;-58
2023/11/06 08:04:54;;;;;;;9.53;3.17;;;10.10;99.90;;;;;;5136567;27;20508;-60
2023/11/06 08:07:22;;;;;;;11.07;3.57;;;10.10;99.90;;;;;;5135050;27;20446;-60
2023/11/06 08:09:51;;;;;;;10.60;3.07;;;10.10;99.90;;;;;;5136537;28;20922;-59
2023/11/06 08:12:18;;;;;;;11.43;3.23;;;10.10;99.90;;;;;;5136592;28;20454;-59
2023/11/06 08:14:45;;;;;;;12.03;3.60;;;10.10;99.90;;;;;;5138176;28;20537;-61
2023/11/06 08:17:13;;;;;;;10.80;4.03;;;10.10;99.90;;;;;;5138169;28;21007;-60
2023/11/06 08:19:41;;;;;;;10.47;3.60;;;10.20;99.90;;;;;;5137988;28;20459;-59
2023/11/06 08:22:10;;;;;;;10.83;3.33;;;10.20;99.90;;;;;;5123911;27;20560;-59
2023/11/06 08:24:37;;;;;;;10.53;3.30;;;10.20;99.90;;;;;;5116517;28;20465;-59
2023/11/06 08:27:07;;;;;;;11.77;3.33;;;10.30;39.10;;;;;;5117624;28;20456;-59
2023/11/06 08:29:34;;;;;;;11.20;5.10;;;10.30;38.00;;;;;;5116376;28;20500;-59
2023/11/06 08:32:02;;;;;;;14.30;4.17;;;10.40;14.50;;;;;;5117067;28;20451;-60
2023/11/06 08:34:29;;;;;;;11.27;3.90;;;10.50;1.00;;;;;;5117337;28;20474;-61
2023/11/06 08:36:57;;;;;;;7.07;2.97;;;10.50;1.00;;;;;;5117385;28;20510;-59
2023/11/06 08:39:24;;;;;;;7.60;3.27;;;10.60;1.00;;;;;;5116594;28;20920;-61
2023/11/06 08:41:51;;;;;;;9.50;3.90;;;10.70;1.00;;;;;;5137783;27;20487;-59
2023/11/06 08:44:20;;;;;;;6.60;3.20;;;10.60;1.00;;;;;;5140359;27;20429;-59
2023/11/06 08:46:47;;;;;;;7.53;2.63;;;10.70;1.00;;;;;;5141729;27;20962;-60
2023/11/06 08:49:15;;;;;;;8.83;3.00;;;10.70;1.00;;;;;;5141375;27;20811;-59
2023/11/06 08:51:42;;;;;;;10.80;3.23;;;10.70;1.00;;;;;;5141829;27;20455;-59
2023/11/06 08:54:10;;;;;;;10.67;3.27;;;10.90;1.00;;;;;;5141781;27;20458;-60
2023/11/06 08:56:37;;;;;;;7.17;3.17;;;11.00;1.00;;;;;;5142315;27;20461;-59
2023/11/06 08:59:06;;;;;;;9.17;3.40;;;11.00;99.90;;;;;;5142089;27;20454;-60
2023/11/06 09:01:35;;;;;;;7.23;2.60;;;10.90;99.90;;;;;;5141416;27;20458;-59
2023/11/06 09:04:02;;;;;;;9.07;2.93;;;11.20;99.90;;;;;;5141738;27;20549;-59
2023/11/06 09:06:30;;;;;;;6.80;3.10;;;11.30;99.90;;;;;;5141989;27;20429;-59
2023/11/06 09:08:57;;;;;;;9.93;3.17;;;11.40;99.90;;;;;;5141936;27;20545;-60
2023/11/06 09:11:24;;;;;;;9.50;2.90;;;11.60;99.90;;;;;;5141748;27;20538;-60
2023/11/06 09:13:51;;;;;;;12.60;4.10;;;11.70;99.90;;;;;;5141670;27;20478;-58
2023/11/06 09:16:18;;;;;;;7.10;2.73;;;11.60;99.90;;;;;;5141476;27;20868;-59
2023/11/06 09:18:48;;;;;;;10.47;3.70;;;11.40;99.90;;;;;;5141520;27;20895;-61
2023/11/06 09:21:15;;;;;;;9.27;3.40;;;11.20;99.90;;;;;;5140815;27;20458;-59
2023/11/06 09:23:43;;;;;;;10.57;3.10;;;11.10;99.90;;;;;;5141277;27;20429;-60
2023/11/06 09:26:10;;;;;;;5.70;2.47;;;11.20;99.90;;;;;;5141518;27;20799;-59
2023/11/06 09:28:38;;;;;;;10.67;2.80;;;11.30;99.90;;;;;;5141421;27;20454;-60
2023/11/06 09:31:05;;;;;;;10.20;3.17;;;11.40;99.90;;;;;;5140305;27;20454;-59
2023/11/06 09:33:33;;;;;;;6.97;2.60;;;11.50;99.90;;;;;;5141255;27;20433;-60
2023/11/06 09:36:02;;;;;;;8.77;4.27;;;11.50;99.90;;;;;;5140713;27;20465;-60
2023/11/06 09:38:30;;;;;;;7.33;3.00;;;11.40;99.90;;;;;;5140705;27;20934;-59
2023/11/06 09:40:57;;;;;;;9.73;2.73;;;11.50;99.90;;;;;;5140888;27;20786;-59
2023/11/06 09:43:25;;;;;;;9.10;2.57;;;11.60;99.90;;;;;;5140505;27;20544;-59
2023/11/06 09:45:52;;;;;;;9.07;3.00;;;11.70;99.90;;;;;;5140579;27;20499;-59
2023/11/06 09:48:20;;;;;;;8.10;3.03;;;11.80;97.60;;;;;;5141407;27;20884;-60
2023/11/06 09:50:49;;;;;;;7.80;2.90;;;11.80;99.90;;;;;;5140739;27;20459;-59
2023/11/06 09:53:18;;;;;;;10.37;3.53;;;11.60;99.90;;;;;;5140311;27;20507;-59
2023/11/06 09:55:47;;;;;;;10.67;2.90;;;11.50;99.90;;;;;;5139903;27;20748;-59
2023/11/06 09:58:14;;;;;;;8.20;2.63;;;11.40;99.90;;;;;;5138986;27;21027;-60
2023/11/06 10:00:42;;;;;;;6.77;2.30;;;11.30;99.90;;;;;;5138367;27;20429;-60
2023/11/06 10:03:09;;;;;;;9.40;2.90;;;11.30;99.90;;;;;;5138349;27;20455;-59
2023/11/06 10:05:37;;;;;;;7.07;2.57;;;11.20;99.40;;;;;;5138688;27;20557;-60
2023/11/06 10:08:06;;;;;;;8.07;2.70;;;11.30;99.90;;;;;;5138631;27;21018;-59
2023/11/06 10:10:35;;;;;;;8.63;2.57;;;11.30;99.90;;;;;;5138510;27;20458;-60
2023/11/06 10:13:04;;;;;;;8.67;3.00;;;11.30;99.90;;;;;;5138656;27;20538;-60
2023/11/06 10:15:32;;;;;;;6.10;2.63;;;11.40;99.90;;;;;;5138791;27;20463;-59
2023/11/06 10:18:14;;;;;;;7.87;2.90;;;11.50;91.90;;;;;;5140129;27;20559;-59
2023/11/06 10:20:42;;;;;;;6.57;2.63;;;11.60;86.40;;;;;;5140460;27;20459;-59
2023/11/06 10:23:10;;;;;;;10.53;3.23;;;11.70;90.30;;;;;;5140150;27;20512;-60
2023/11/06 10:25:38;;;;;;;8.60;2.77;;;11.80;87.20;;;;;;5139668;27;20474;-59
2023/11/06 10:28:18;;;;;;;6.70;3.10;;;12.00;95.20;;;;;;5139442;27;20455;-59
2023/11/06 10:30:49;;;;;;;6.83;2.40;;;12.00;1.00;;;;;;5138417;27;20455;-59
2023/11/06 10:33:17;;;;;;;7.97;3.03;;;12.00;1.00;;;;;;5138243;27;20455;-60
2023/11/06 10:35:45;;;;;;;6.10;2.43;;;12.00;1.00;;;;;;5138550;27;20831;-60
2023/11/06 10:38:37;;;;;;;9.90;2.77;;;12.00;1.00;;;;;;5138395;27;20586;-59
2023/11/06 10:41:24;;;;;;;10.50;3.30;;;12.20;1.00;;;;;;5118615;27;20470;-60
2023/11/06 10:43:53;;;;;;;7.70;2.77;;;12.30;1.00;;;;;;5139252;27;20461;-59
2023/11/06 10:46:21;;;;;;;7.70;3.00;;;12.40;1.00;;;;;;5137829;27;20741;-60
2023/11/06 10:48:56;;;;;;;14.77;3.37;;;12.30;1.00;;;;;;5138571;27;20876;-60
2023/11/06 10:51:24;;;;;;;8.13;3.23;;;12.30;1.00;;;;;;5138926;27;20754;-59
2023/11/06 10:53:52;;;;;;;9.73;2.83;;;12.30;1.00;;;;;;5139263;27;20545;-59
2023/11/06 10:56:22;;;;;;;9.00;3.13;;;12.30;1.00;;;;;;5139616;27;20451;-62
2023/11/06 10:58:50;;;;;;;9.40;3.47;;;12.50;1.00;;;;;;5139418;27;20561;-59
2023/11/06 11:01:17;;;;;;;10.60;3.37;;;12.60;1.00;;;;;;5138992;27;20553;-60
2023/11/06 11:03:45;;;;;;;9.93;3.57;;;12.80;1.00;;;;;;5138027;27;20455;-60
2023/11/06 11:06:12;;;;;;;7.87;3.30;;;13.20;1.00;;;;;;5136690;27;20463;-60
2023/11/06 11:08:40;;;;;;;8.20;2.83;;;13.40;1.00;;;;;;5137468;27;21133;-60
2023/11/06 11:11:09;;;;;;;6.07;3.03;;;13.80;1.00;;;;;;5137750;27;20435;-60
2023/11/06 11:13:39;;;;;;;8.70;3.20;;;14.00;1.00;;;;;;5136610;27;20511;-60
2023/11/06 11:16:42;;;;;;;6.00;2.83;;;14.00;99.90;;;;;;5137246;27;20826;-60
2023/11/06 11:19:22;;;;;;;7.83;2.40;;;13.90;99.90;;;;;;5137958;27;20458;-60
2023/11/06 11:22:04;;;;;;;8.33;3.40;;;13.80;99.90;;;;;;5138616;27;20494;-60
2023/11/06 11:24:51;;;;;;;10.80;3.17;;;13.70;99.90;;;;;;5137386;27;20451;-59
2023/11/06 11:27:21;;;;;;;13.50;3.17;;;13.80;99.90;;;;;;5137401;27;20457;-59
2023/11/06 11:30:10;;;;;;;7.33;2.80;;;13.70;99.90;;;;;;5137028;27;20450;-60
2023/11/06 11:32:49;;;;;;;8.07;2.70;;;13.80;99.90;;;;;;5137928;27;20455;-59
2023/11/06 11:36:04;;;;;;;6.67;2.80;;;14.30;99.90;;;;;;5137405;27;20483;-61
2023/11/06 11:38:38;;;;;;;5.17;2.47;;;14.60;99.90;;;;;;5137793;27;20859;-60
2023/11/06 11:41:15;;;;;;;5.30;2.20;;;14.90;99.90;;;;;;5138848;27;20560;-60
2023/11/06 11:43:47;;;;;;;5.00;2.10;;;14.80;99.90;;;;;;5138638;27;20553;-60
2023/11/06 11:46:57;;;;;;;6.27;2.80;;;14.50;99.90;;;;;;5139279;27;20461;-61
2023/11/06 11:49:45;;;;;;;4.10;2.10;;;14.40;99.90;;;;;;5138337;27;20913;-60
2023/11/06 11:52:15;;;;;;;6.70;2.50;;;14.10;99.90;;;;;;5138786;27;20461;-59
2023/11/06 11:54:43;;;;;;;5.30;2.83;;;13.80;99.90;;;;;;5138584;27;20883;-60
2023/11/06 11:57:11;;;;;;;4.30;2.53;;;13.50;99.90;;;;;;5137849;27;20513;-59
2023/11/06 11:59:41;;;;;;;9.17;3.60;;;13.30;99.90;;;;;;5138132;27;20828;-59
2023/11/06 12:02:23;;;;;;;6.03;2.27;;;13.10;99.90;;;;;;5138139;27;20429;-59
2023/11/06 12:04:51;;;;;;;7.70;2.50;;;13.00;99.90;;;;;;5138399;27;20455;-60
2023/11/06 12:07:18;;;;;;;6.47;2.20;;;12.90;99.90;;;;;;5136894;27;20553;-59
2023/11/06 12:09:47;;;;;;;5.00;2.53;;;12.90;99.90;;;;;;5138068;27;20466;-60
2023/11/06 12:12:23;;;;;;;6.40;2.17;;;12.70;99.90;;;;;;5138650;28;20454;-59
2023/11/06 12:14:51;;;;;;;7.83;2.83;;;12.70;99.90;;;;;;5138301;28;20560;-60
2023/11/06 12:17:32;;;;;;;5.83;2.73;;;12.70;99.90;;;;;;5138993;27;20518;-60
2023/11/06 12:20:05;;;;;;;5.60;2.53;;;12.70;99.90;;;;;;5142457;27;20498;-59
2023/11/06 12:22:33;;;;;;;9.70;2.97;;;12.60;99.90;;;;;;5142883;27;20953;-59
2023/11/06 12:25:00;;;;;;;5.97;2.30;;;12.60;99.90;;;;;;5141081;27;20794;-60
2023/11/06 12:27:35;;;;;;;5.77;2.73;;;12.60;99.90;;;;;;5141462;27;20502;-60
2023/11/06 12:30:06;;;;;;;4.00;1.83;;;12.60;99.90;;;;;;5141268;27;20454;-60
2023/11/06 12:32:35;;;;;;;6.37;2.30;;;12.50;99.90;;;;;;5142171;27;20458;-60
2023/11/06 12:35:19;;;;;;;6.67;2.10;;;12.50;99.90;;;;;;5140599;27;20457;-60
2023/11/06 12:37:54;;;;;;;5.40;2.27;;;12.50;99.90;;;;;;5141413;27;20501;-60
2023/11/06 12:40:24;;;;;;;7.10;2.93;;;12.50;99.90;;;;;;5140910;27;20919;-60
2023/11/06 12:42:52;;;;;;;4.33;1.87;;;12.50;99.90;;;;;;5142437;27;20461;-60
2023/11/06 12:45:34;;;;;;;7.70;2.40;;;12.40;99.90;;;;;;5140996;27;20526;-60
2023/11/06 12:48:19;;;;;;;5.60;2.50;;;12.40;99.90;;;;;;5141946;27;20741;-61
2023/11/06 12:51:03;;;;;;;7.63;2.77;;;12.40;99.90;;;;;;5141338;27;20887;-60
2023/11/06 12:53:31;;;;;;;5.87;2.30;;;12.40;99.90;;;;;;5141908;27;20504;-60
2023/11/06 12:55:59;;;;;;;6.77;2.17;;;12.30;99.90;;;;;;5141735;27;20490;-60
2023/11/06 12:58:27;;;;;;;7.33;3.17;;;12.30;1.00;;;;;;5141944;27;20479;-60
2023/11/06 13:00:56;;;;;;;4.50;2.00;;;12.40;1.00;;;;;;5140372;27;20461;-59